Time;durP1;ratioP1;P1;durP2;ratioP2;P2;SDS_P1;SDS_P2;PMS_P1;PMS_P2;Temp;Humidity;BMP_temperature;BMP_pressure;BME280_temperature;BME280_humidity;BME280_pressure;Samples;Min_cycle;Max_cycle;Signal;HPM_P1;HPM_P2
2021/05/17 00:01:22;;;;;;;6.40;4.20;;;;;;;11.94;100.00;99815.16;1877884;76;26307;-79
2021/05/17 00:03:53;;;;;;;6.80;3.63;;;;;;;11.94;100.00;99819.33;1881654;76;26306;-79
2021/05/17 00:06:24;;;;;;;6.80;3.80;;;;;;;11.94;100.00;99816.55;1881719;76;26284;-79
2021/05/17 00:08:55;;;;;;;6.73;3.67;;;;;;;11.93;100.00;99826.03;1881627;76;26234;-79
2021/05/17 00:11:25;;;;;;;5.50;3.60;;;;;;;11.93;100.00;99819.08;1881716;76;26190;-80
2021/05/17 00:13:55;;;;;;;4.17;3.13;;;;;;;11.88;100.00;99817.24;1881916;76;26186;-80
2021/05/17 00:16:25;;;;;;;4.53;3.20;;;;;;;11.88;100.00;99817.81;1881906;76;26679;-80
2021/05/17 00:18:56;;;;;;;4.90;3.17;;;;;;;11.88;100.00;99823.38;1881843;76;26190;-79
2021/05/17 00:21:27;;;;;;;4.10;2.83;;;;;;;11.85;100.00;99822.86;1881828;76;26283;-79
2021/05/17 00:23:57;;;;;;;4.07;2.83;;;;;;;11.84;100.00;99828.77;1881770;76;26202;-79
2021/05/17 00:26:28;;;;;;;5.73;3.47;;;;;;;11.84;100.00;99834.33;1881789;76;26253;-80
2021/05/17 00:29:00;;;;;;;5.30;2.77;;;;;;;11.83;100.00;99843.23;1881693;76;26758;-80
2021/05/17 00:31:31;;;;;;;4.43;2.67;;;;;;;11.79;100.00;99839.45;1881743;76;26190;-80
2021/05/17 00:34:01;;;;;;;4.83;2.70;;;;;;;11.81;100.00;99845.50;1881694;76;26726;-79
2021/05/17 00:36:31;;;;;;;3.60;2.20;;;;;;;11.72;100.00;99846.02;1881822;76;26271;-79
2021/05/17 00:39:04;;;;;;;3.33;2.20;;;;;;;11.76;100.00;99852.62;1881809;76;26194;-79
2021/05/17 00:41:34;;;;;;;3.47;2.20;;;;;;;11.76;100.00;99848.44;1881803;76;26194;-79
2021/05/17 00:44:05;;;;;;;3.77;2.00;;;;;;;11.75;100.00;99851.53;1881692;76;26268;-79
2021/05/17 00:46:36;;;;;;;3.30;2.33;;;;;;;11.74;100.00;99856.27;1881758;76;26275;-79
2021/05/17 00:49:07;;;;;;;3.30;2.30;;;;;;;11.73;100.00;99857.41;1881709;76;26664;-79
2021/05/17 00:51:38;;;;;;;4.13;2.00;;;;;;;11.70;100.00;99854.41;1881646;76;26210;-80
2021/05/17 00:54:09;;;;;;;2.03;1.60;;;;;;;11.70;100.00;99859.97;1881697;76;26684;-80
2021/05/17 00:56:40;;;;;;;1.57;1.47;;;;;;;11.66;100.00;99867.30;1881730;76;26202;-80
2021/05/17 00:59:11;;;;;;;3.20;1.50;;;;;;;11.66;100.00;99868.12;1881804;76;26194;-80
2021/05/17 01:01:41;;;;;;;3.50;1.47;;;;;;;11.66;100.00;99868.70;1881761;76;26189;-80
2021/05/17 01:04:11;;;;;;;3.07;1.47;;;;;;;11.63;100.00;99869.34;1881700;76;26303;-80
2021/05/17 01:06:45;;;;;;;3.37;1.27;;;;;;;11.61;100.00;99877.98;1881789;76;26185;-80
2021/05/17 01:09:18;;;;;;;1.93;1.10;;;;;;;11.56;100.00;99873.94;1881628;76;26257;-80
2021/05/17 01:11:49;;;;;;;3.17;1.50;;;;;;;11.54;100.00;99875.40;1881878;76;26734;-81
2021/05/17 01:14:19;;;;;;;2.53;1.53;;;;;;;11.52;100.00;99873.48;1881775;76;26201;-80
2021/05/17 01:16:50;;;;;;;5.03;1.80;;;;;;;11.51;100.00;99883.78;1881723;76;26706;-81
2021/05/17 01:19:23;;;;;;;2.20;1.80;;;;;;;11.53;100.00;99875.14;1881714;76;26275;-81
2021/05/17 01:21:56;;;;;;;3.20;2.20;;;;;;;11.52;100.00;99887.39;1881231;76;26696;-80
2021/05/17 01:24:27;;;;;;;3.30;2.70;;;;;;;11.53;100.00;99883.48;1881757;76;26190;-80
2021/05/17 01:26:58;;;;;;;3.70;3.37;;;;;;;11.50;100.00;99889.68;1881708;76;26275;-79
2021/05/17 01:29:29;;;;;;;4.27;3.30;;;;;;;11.51;100.00;99893.52;1881745;76;26245;-79
2021/05/17 01:32:01;;;;;;;4.23;3.40;;;;;;;11.55;100.00;99894.53;1881891;76;26318;-78
2021/05/17 01:34:31;;;;;;;4.03;3.17;;;;;;;11.56;100.00;99895.36;1881776;76;26280;-80
2021/05/17 01:37:02;;;;;;;5.50;3.30;;;;;;;11.56;100.00;99904.52;1881831;76;26287;-80
2021/05/17 01:39:33;;;;;;;5.43;3.50;;;;;;;11.58;100.00;99911.17;1881767;76;26699;-80
2021/05/17 01:42:03;;;;;;;7.03;4.43;;;;;;;11.56;100.00;99912.05;1875312;76;26637;-80
2021/05/17 01:44:36;;;;;;;5.80;5.10;;;;;;;11.55;100.00;99909.03;1875362;76;26259;-79
2021/05/17 01:47:06;;;;;;;4.97;4.47;;;;;;;11.56;100.00;99909.27;1875380;76;26688;-79
2021/05/17 01:49:39;;;;;;;5.73;4.97;;;;;;;11.57;100.00;99909.52;1875409;76;26194;-79
2021/05/17 01:52:10;;;;;;;8.50;5.90;;;;;;;11.58;100.00;99910.61;1875310;76;26616;-79
2021/05/17 01:54:43;;;;;;;6.30;5.70;;;;;;;11.55;100.00;99914.00;1875314;76;26763;-79
2021/05/17 01:57:13;;;;;;;10.47;6.50;;;;;;;11.58;100.00;99925.91;1875318;76;26260;-79
2021/05/17 01:59:44;;;;;;;9.23;6.23;;;;;;;11.56;100.00;99929.55;1880494;76;26271;-78
2021/05/17 02:02:14;;;;;;;7.47;6.30;;;;;;;11.56;100.00;99930.95;1881752;76;26361;-79
2021/05/17 02:04:44;;;;;;;10.00;6.67;;;;;;;11.58;100.00;99930.64;1881860;76;26174;-79
2021/05/17 02:07:14;;;;;;;8.23;5.93;;;;;;;11.58;100.00;99934.81;1881930;76;26202;-78
2021/05/17 02:09:45;;;;;;;8.33;6.57;;;;;;;11.58;100.00;99942.59;1881783;76;26241;-79
2021/05/17 02:12:17;;;;;;;7.30;6.60;;;;;;;11.59;100.00;99945.64;1881716;76;26270;-78
2021/05/17 02:14:50;;;;;;;7.17;6.47;;;;;;;11.61;100.00;99958.65;1882086;76;26207;-78
2021/05/17 02:17:23;;;;;;;8.80;6.40;;;;;;;11.62;100.00;99972.81;1881822;76;26306;-78
2021/05/17 02:19:54;;;;;;;7.87;6.97;;;;;;;11.62;100.00;99976.98;1881782;76;26637;-78
2021/05/17 02:22:24;;;;;;;12.23;7.13;;;;;;;11.63;100.00;99977.81;1881753;76;26194;-78
2021/05/17 02:24:55;;;;;;;8.80;7.33;;;;;;;11.63;100.00;99977.25;1881711;76;26636;-78
2021/05/17 02:27:25;;;;;;;10.63;7.03;;;;;;;11.62;100.00;99985.33;1881712;76;26295;-79
2021/05/17 02:29:55;;;;;;;7.90;7.17;;;;;;;11.65;100.00;99990.26;1881839;76;26267;-78
2021/05/17 02:32:26;;;;;;;7.23;6.53;;;;;;;11.65;100.00;99992.21;1881741;76;26641;-79
2021/05/17 02:34:58;;;;;;;10.40;7.90;;;;;;;11.64;100.00;99993.34;1881844;76;26293;-79
2021/05/17 02:37:28;;;;;;;9.37;8.37;;;;;;;11.57;100.00;100003.52;1881831;76;26194;-79
2021/05/17 02:39:59;;;;;;;10.40;9.50;;;;;;;11.55;100.00;100007.16;1881863;76;26209;-79
2021/05/17 02:42:30;;;;;;;11.47;9.97;;;;;;;11.53;100.00;100007.23;1881839;76;26621;-79
2021/05/17 02:45:02;;;;;;;10.83;9.83;;;;;;;11.50;100.00;100014.26;1881744;76;26347;-79
2021/05/17 02:47:35;;;;;;;12.40;10.10;;;;;;;11.52;100.00;100013.92;1881665;76;26190;-79
2021/05/17 02:50:07;;;;;;;11.20;10.07;;;;;;;11.55;100.00;100016.91;1881661;76;26621;-79
2021/05/17 02:52:38;;;;;;;11.93;9.70;;;;;;;11.52;100.00;100016.14;1881619;76;26646;-78
2021/05/17 02:55:11;;;;;;;10.53;9.53;;;;;;;11.53;100.00;100019.75;1881798;76;26197;-78
2021/05/17 02:57:43;;;;;;;12.07;10.80;;;;;;;11.54;100.00;100025.58;1881825;76;26229;-78
2021/05/17 03:00:17;;;;;;;12.27;9.97;;;;;;;11.53;100.00;100028.09;1881858;76;26190;-78
2021/05/17 03:02:59;;;;;;;11.60;10.40;;;;;;;11.55;100.00;100025.24;1881770;76;26225;-78
2021/05/17 03:05:32;;;;;;;12.03;10.37;;;;;;;11.53;100.00;100027.53;1881729;76;26594;-78
2021/05/17 03:08:05;;;;;;;12.37;11.00;;;;;;;11.51;100.00;100031.17;1862985;76;26678;-78
2021/05/17 03:10:37;;;;;;;11.90;10.70;;;;;;;11.50;100.00;100037.90;1881757;76;26237;-78
2021/05/17 03:13:11;;;;;;;10.73;9.60;;;;;;;11.54;100.00;100037.53;1881720;76;26701;-78
2021/05/17 03:15:43;;;;;;;12.30;9.53;;;;;;;11.54;100.00;100040.87;1881810;76;26256;-78
2021/05/17 03:18:13;;;;;;;12.57;10.13;;;;;;;11.50;100.00;100046.23;1881736;76;26642;-78
2021/05/17 03:20:43;;;;;;;10.63;9.57;;;;;;;11.51;100.00;100047.06;1881725;76;26698;-78
2021/05/17 03:23:15;;;;;;;10.57;9.57;;;;;;;11.48;100.00;100054.05;1881744;76;26252;-78
2021/05/17 03:25:48;;;;;;;10.97;9.50;;;;;;;11.49;100.00;100055.70;1881762;76;26267;-78
2021/05/17 03:28:18;;;;;;;12.70;10.00;;;;;;;11.48;100.00;100054.62;1881669;76;26702;-78
2021/05/17 03:30:48;;;;;;;10.40;9.03;;;;;;;11.47;100.00;100059.95;1881632;76;26669;-79
2021/05/17 03:33:18;;;;;;;10.47;9.20;;;;;;;11.50;100.00;100066.27;1881700;76;26252;-79
2021/05/17 03:36:06;;;;;;;13.77;9.00;;;;;;;11.47;100.00;100062.73;1857132;77;33183;-79
2021/05/17 03:38:38;;;;;;;9.60;8.17;;;;;;;11.45;100.00;100072.76;1891442;75;26741;-79
2021/05/17 03:41:08;;;;;;;10.23;9.20;;;;;;;11.47;100.00;100070.48;1887835;76;26651;-79
2021/05/17 03:43:38;;;;;;;10.47;9.37;;;;;;;11.46;100.00;100084.14;1887827;76;26756;-80
2021/05/17 03:46:08;;;;;;;10.40;9.37;;;;;;;11.45;100.00;100086.66;1887694;76;26625;-80
2021/05/17 03:48:41;;;;;;;10.43;9.37;;;;;;;11.47;100.00;100088.55;1887637;76;26229;-79
2021/05/17 03:51:11;;;;;;;10.27;9.13;;;;;;;11.44;100.00;100098.91;1887604;76;26675;-79
2021/05/17 03:53:42;;;;;;;10.77;9.13;;;;;;;11.53;100.00;100103.19;1887738;76;26675;-79
2021/05/17 03:56:11;;;;;;;10.97;9.57;;;;;;;11.55;100.00;100110.66;1887798;76;26209;-79
2021/05/17 03:58:41;;;;;;;10.50;9.40;;;;;;;11.55;100.00;100115.64;1887549;76;26205;-78
2021/05/17 04:01:11;;;;;;;11.13;9.50;;;;;;;11.55;100.00;100123.98;1875395;76;934791;-79
2021/05/17 04:03:41;;;;;;;12.37;9.13;;;;;;;11.57;100.00;100129.24;1887717;75;26683;-78
2021/05/17 04:06:16;;;;;;;10.53;9.40;;;;;;;11.54;100.00;100127.91;1887860;74;26683;-78
2021/05/17 04:14:18;;;;;;;11.17;9.03;;;;;;;11.58;100.00;100134.51;1924864;74;26193;-78
2021/05/17 04:16:47;;;;;;;12.03;8.97;;;;;;;11.54;100.00;100136.83;1926103;74;26181;-80
2021/05/17 04:19:19;;;;;;;11.97;9.77;;;;;;;11.52;100.00;100141.86;1924897;74;26174;-79
2021/05/17 04:21:49;;;;;;;10.67;9.50;;;;;;;11.50;100.00;100142.19;1902730;75;26264;-79
2021/05/17 04:24:19;;;;;;;11.93;9.40;;;;;;;11.47;100.00;100140.00;1922883;74;26708;-79
2021/05/17 04:26:49;;;;;;;9.67;8.77;;;;;;;11.49;100.00;100141.92;1924859;74;26177;-79
2021/05/17 04:29:19;;;;;;;10.30;9.30;;;;;;;11.45;100.00;100149.23;1924732;74;26181;-79
2021/05/17 04:31:52;;;;;;;10.70;9.20;;;;;;;11.44;100.00;100147.58;1924651;74;26634;-79
2021/05/17 04:34:22;;;;;;;11.77;9.27;;;;;;;11.39;100.00;100146.28;1924645;74;26328;-78
2021/05/17 04:36:52;;;;;;;10.23;9.10;;;;;;;11.40;100.00;100152.11;1924843;74;26173;-79
2021/05/17 04:39:22;;;;;;;10.53;9.43;;;;;;;11.47;100.00;100162.84;1924613;74;26174;-78
2021/05/17 04:41:52;;;;;;;10.03;8.93;;;;;;;11.45;100.00;100167.88;1924840;74;26236;-78
2021/05/17 04:44:21;;;;;;;12.17;9.63;;;;;;;11.45;100.00;100172.87;1924784;74;26224;-78
2021/05/17 04:46:51;;;;;;;10.93;9.47;;;;;;;11.43;100.00;100174.55;1924733;74;26178;-79
2021/05/17 04:49:21;;;;;;;10.20;9.17;;;;;;;11.41;100.00;100181.00;1924704;74;26640;-79
2021/05/17 04:51:51;;;;;;;11.57;8.60;;;;;;;11.39;100.00;100181.04;1924663;74;26294;-79
2021/05/17 04:54:21;;;;;;;10.00;9.00;;;;;;;11.37;100.00;100188.31;1924681;74;26209;-78
2021/05/17 04:56:51;;;;;;;11.57;9.00;;;;;;;11.36;100.00;100191.39;1924761;74;26209;-79
2021/05/17 04:59:21;;;;;;;9.50;8.60;;;;;;;11.37;100.00;100192.48;1924713;74;26263;-78
2021/05/17 05:01:51;;;;;;;11.17;8.63;;;;;;;11.37;100.00;100195.83;1924671;73;26271;-78
2021/05/17 05:04:21;;;;;;;9.63;8.30;;;;;;;11.35;100.00;100202.25;1927930;74;26209;-78
2021/05/17 05:06:52;;;;;;;10.63;8.83;;;;;;;11.41;100.00;100206.59;1926843;74;26213;-78
2021/05/17 05:09:22;;;;;;;10.87;9.50;;;;;;;11.42;100.00;100204.88;1924638;74;26189;-78
2021/05/17 05:11:52;;;;;;;10.47;8.50;;;;;;;11.41;100.00;100212.98;1920109;74;26740;-79
2021/05/17 05:14:22;;;;;;;11.23;8.90;;;;;;;11.45;100.00;100224.88;1917946;75;26260;-79
2021/05/17 05:16:52;;;;;;;11.87;8.70;;;;;;;11.43;100.00;100225.17;1923225;74;26248;-79
2021/05/17 05:19:22;;;;;;;10.20;9.03;;;;;;;11.46;100.00;100226.53;1924612;74;26227;-80
2021/05/17 05:21:52;;;;;;;9.47;8.57;;;;;;;11.49;100.00;100221.73;1924700;74;26170;-80
2021/05/17 05:24:22;;;;;;;9.77;8.77;;;;;;;11.49;100.00;100232.30;1924638;74;26181;-80
2021/05/17 05:26:58;;;;;;;9.60;8.70;;;;;;;11.46;100.00;100227.36;1924721;74;26185;-79
2021/05/17 05:29:33;;;;;;;10.03;8.80;;;;;;;11.49;100.00;100229.52;1924033;74;26221;-80
2021/05/17 05:32:03;;;;;;;10.87;9.50;;;;;;;11.50;100.00;100239.52;1924225;74;26295;-79
2021/05/17 05:34:32;;;;;;;11.10;9.50;;;;;;;11.51;100.00;100249.49;1924888;74;26247;-79
2021/05/17 05:37:03;;;;;;;11.50;9.30;;;;;;;11.53;100.00;100247.25;1924630;74;26182;-79
2021/05/17 05:39:32;;;;;;;10.57;8.80;;;;;;;11.52;100.00;100255.32;1924861;74;26266;-79
2021/05/17 05:42:02;;;;;;;10.93;9.70;;;;;;;11.51;100.00;100252.27;1924662;74;26190;-79
2021/05/17 05:44:39;;;;;;;10.43;9.33;;;;;;;11.58;100.00;100251.89;1924608;74;26204;-79
2021/05/17 05:47:04;;;;;;;12.67;10.13;;;;;;;11.60;100.00;100262.12;1923852;74;26162;-79
2021/05/17 05:49:34;;;;;;;11.03;9.40;;;;;;;11.64;100.00;100255.65;1924640;74;26181;-79
2021/05/17 05:52:04;;;;;;;13.47;10.53;;;;;;;11.64;100.00;100268.73;1924613;74;26327;-81
2021/05/17 05:54:34;;;;;;;11.80;10.00;;;;;;;11.66;100.00;100269.27;1924718;74;26157;-80
2021/05/17 05:57:06;;;;;;;10.83;9.70;;;;;;;11.72;100.00;100272.25;1924737;74;26182;-79
2021/05/17 05:59:37;;;;;;;12.60;10.03;;;;;;;11.75;100.00;100275.80;1924648;74;26165;-79
2021/05/17 06:02:07;;;;;;;13.80;11.10;;;;;;;11.78;100.00;100277.96;1924699;73;26262;-80
2021/05/17 06:04:37;;;;;;;11.50;9.57;;;;;;;11.67;100.00;100280.09;1924720;74;26174;-79
2021/05/17 06:07:07;;;;;;;11.43;10.00;;;;;;;11.74;100.00;100287.49;1902783;75;26158;-79
2021/05/17 06:09:37;;;;;;;13.07;10.53;;;;;;;11.69;100.00;100286.16;1916081;75;26259;-79
2021/05/17 06:12:09;;;;;;;11.47;10.10;;;;;;;11.66;100.00;100290.12;1920693;74;26288;-78
2021/05/17 06:14:39;;;;;;;12.87;9.97;;;;;;;11.58;100.00;100296.39;1924532;74;26173;-80
2021/05/17 06:17:11;;;;;;;12.57;10.60;;;;;;;11.57;100.00;100294.73;1924663;74;26243;-79
2021/05/17 06:19:42;;;;;;;12.43;11.13;;;;;;;11.55;100.00;100304.77;1924543;74;26217;-79
2021/05/17 06:22:13;;;;;;;13.80;10.63;;;;;;;11.52;100.00;100312.34;1924844;74;26162;-79
2021/05/17 06:24:44;;;;;;;12.90;10.60;;;;;;;11.51;100.00;100312.06;1924748;74;26177;-79
2021/05/17 06:27:16;;;;;;;11.27;10.17;;;;;;;11.53;100.00;100319.56;1924676;74;26593;-79
2021/05/17 06:29:47;;;;;;;13.30;10.47;;;;;;;11.61;100.00;100326.38;1924622;74;26260;-78
2021/05/17 06:32:18;;;;;;;12.93;10.77;;;;;;;11.63;100.00;100328.30;1924990;74;26182;-77
2021/05/17 06:34:50;;;;;;;12.80;10.77;;;;;;;11.72;100.00;100329.28;1924856;74;26182;-78
2021/05/17 06:37:20;;;;;;;12.53;10.03;;;;;;;11.90;100.00;100331.16;1925058;74;26265;-78
2021/05/17 06:39:50;;;;;;;12.70;11.03;;;;;;;12.01;100.00;100343.77;1924893;74;26186;-79
2021/05/17 06:42:21;;;;;;;14.93;11.10;;;;;;;12.07;100.00;100338.91;1924963;74;26601;-78
2021/05/17 06:44:51;;;;;;;12.27;10.97;;;;;;;11.98;100.00;100342.97;1924899;74;26237;-78
2021/05/17 06:47:22;;;;;;;13.07;11.67;;;;;;;11.96;100.00;100352.77;1924839;74;26657;-79
2021/05/17 06:49:52;;;;;;;12.67;11.23;;;;;;;11.99;100.00;100347.97;1924805;74;26660;-79
2021/05/17 06:52:25;;;;;;;11.90;10.67;;;;;;;12.07;100.00;100355.05;1924892;74;26266;-79
2021/05/17 06:54:59;;;;;;;12.63;11.33;;;;;;;12.15;100.00;100356.31;1925044;74;26671;-79
2021/05/17 06:57:37;;;;;;;14.67;11.03;;;;;;;12.20;100.00;100361.20;1924518;74;26234;-80
2021/05/17 07:00:05;;;;;;;13.20;11.80;;;;;;;12.17;100.00;100370.74;1923500;74;26157;-79
2021/05/17 07:02:32;;;;;;;12.33;11.13;;;;;;;12.11;100.00;100379.75;1924184;73;26197;-79
2021/05/17 07:05:04;;;;;;;13.17;11.87;;;;;;;12.18;100.00;100384.93;1924683;74;26173;-81
2021/05/17 07:07:48;;;;;;;14.63;12.43;;;;;;;12.48;100.00;100392.70;1924779;74;26225;-81
2021/05/17 07:13:03;;;;;;;12.83;11.43;;;;;;;12.49;100.00;100397.14;1921173;74;26319;-81
2021/05/17 07:15:33;;;;;;;14.33;12.83;;;;;;;12.43;100.00;100390.56;1918129;74;26288;-81
2021/05/17 07:18:03;;;;;;;13.93;12.50;;;;;;;12.52;100.00;100398.47;1918288;75;26206;-81
2021/05/17 07:23:37;;;;;;;13.90;12.07;;;;;;;12.61;100.00;100400.80;1918103;75;26198;-81
2021/05/17 07:25:52;;;;;;;14.60;13.10;;;;;;;12.78;100.00;100401.00;1918345;74;26398;-81
2021/05/17 07:28:22;;;;;;;12.70;11.17;;;;;;;12.87;100.00;100401.09;1923031;74;26190;-79
2021/05/17 07:30:52;;;;;;;12.67;11.10;;;;;;;12.90;100.00;100404.64;1924955;74;26255;-80
2021/05/17 07:33:22;;;;;;;15.20;12.07;;;;;;;13.02;100.00;100407.15;1925625;74;26202;-80
2021/05/17 07:35:52;;;;;;;12.83;11.53;;;;;;;13.12;100.00;100411.72;1925507;74;26248;-80
2021/05/17 07:38:26;;;;;;;12.33;10.43;;;;;;;13.20;100.00;100411.80;1925532;74;26298;-80
2021/05/17 07:40:53;;;;;;;13.13;11.57;;;;;;;13.36;100.00;100417.02;1924234;74;26178;-80
2021/05/17 07:43:23;;;;;;;14.83;12.10;;;;;;;13.69;100.00;100423.46;1924875;74;26283;-80
2021/05/17 07:45:54;;;;;;;12.63;10.87;;;;;;;13.45;100.00;100422.11;1924801;74;26321;-79
2021/05/17 07:48:24;;;;;;;13.40;11.90;;;;;;;13.56;100.00;100424.34;1928385;74;26214;-79
2021/05/17 07:50:54;;;;;;;15.47;12.53;;;;;;;13.56;100.00;100422.94;1925546;74;26244;-79
2021/05/17 07:53:24;;;;;;;11.70;10.50;;;;;;;13.67;100.00;100417.39;1924827;74;26633;-79
2021/05/17 07:55:54;;;;;;;12.83;11.37;;;;;;;13.65;100.00;100425.80;1924813;74;26680;-79
2021/05/17 07:58:24;;;;;;;11.60;10.40;;;;;;;13.81;100.00;100436.05;1924958;74;26661;-79
2021/05/17 08:00:56;;;;;;;12.33;10.97;;;;;;;14.03;100.00;100431.86;1924920;74;26187;-78
2021/05/17 08:03:26;;;;;;;11.13;10.03;;;;;;;14.24;100.00;100434.94;1924791;73;26365;-79
2021/05/17 08:05:56;;;;;;;12.90;11.13;;;;;;;14.33;100.00;100438.05;1924717;74;26267;-79
2021/05/17 08:08:25;;;;;;;10.53;9.00;;;;;;;14.44;100.00;100441.41;1924874;74;26248;-79
2021/05/17 08:10:56;;;;;;;8.60;7.50;;;;;;;14.63;100.00;100443.41;1924809;74;26177;-79
2021/05/17 08:13:25;;;;;;;8.60;7.70;;;;;;;14.59;100.00;100454.95;1924746;74;26284;-78
2021/05/17 08:15:55;;;;;;;7.93;7.13;;;;;;;14.62;100.00;100460.48;1924873;74;26227;-79
2021/05/17 08:18:25;;;;;;;9.63;8.07;;;;;;;14.86;100.00;100463.13;1924917;74;26170;-78
2021/05/17 08:20:55;;;;;;;8.43;7.50;;;;;;;15.19;100.00;100457.96;1924770;74;26686;-79
2021/05/17 08:23:25;;;;;;;8.43;7.60;;;;;;;15.21;100.00;100464.64;1924784;74;26177;-79
2021/05/17 08:25:56;;;;;;;12.07;7.37;;;;;;;15.12;100.00;100465.19;1924856;74;26170;-80
2021/05/17 08:28:26;;;;;;;7.93;7.20;;;;;;;15.09;100.00;100468.08;1924734;74;26600;-79
2021/05/17 08:30:57;;;;;;;8.47;7.57;;;;;;;15.00;100.00;100475.04;1924741;74;26255;-76
2021/05/17 08:33:29;;;;;;;11.30;8.77;;;;;;;14.97;100.00;100477.67;1924771;74;26291;-77
2021/05/17 08:35:59;;;;;;;10.90;9.37;;;;;;;14.87;100.00;100480.17;1927989;74;26177;-77
2021/05/17 08:38:29;;;;;;;10.23;8.27;;;;;;;14.71;100.00;100482.33;1925384;74;26248;-78
2021/05/17 08:40:59;;;;;;;10.10;8.37;;;;;;;14.78;100.00;100485.47;1918870;75;26214;-78
2021/05/17 08:43:29;;;;;;;9.17;7.40;;;;;;;14.88;100.00;100487.99;1918011;75;26252;-79
2021/05/17 08:45:59;;;;;;;9.27;8.20;;;;;;;14.91;100.00;100485.94;1924939;74;26236;-78
2021/05/17 08:48:29;;;;;;;9.00;7.40;;;;;;;15.41;100.00;100478.84;1924950;74;26243;-78
2021/05/17 08:50:59;;;;;;;8.37;7.40;;;;;;;15.62;100.00;100474.03;1924819;74;26200;-79
2021/05/17 08:53:30;;;;;;;9.10;8.13;;;;;;;15.62;100.00;100481.03;1924768;74;26644;-79
2021/05/17 08:56:00;;;;;;;10.30;8.90;;;;;;;15.62;100.00;100482.43;1924923;74;26745;-79
2021/05/17 08:58:29;;;;;;;10.70;9.60;;;;;;;15.64;100.00;100490.77;1924879;74;26263;-79
2021/05/17 09:01:02;;;;;;;10.97;9.13;;;;;;;15.47;100.00;100494.91;1924925;74;26629;-79
2021/05/17 09:03:32;;;;;;;13.07;9.50;;;;;;;15.21;100.00;100503.24;1924911;73;26244;-79
2021/05/17 09:06:11;;;;;;;10.70;9.67;;;;;;;14.96;100.00;100502.58;1924816;74;26280;-79
2021/05/17 09:08:45;;;;;;;10.53;9.43;;;;;;;15.17;100.00;100507.84;1924844;74;26213;-78
2021/05/17 09:11:18;;;;;;;11.47;10.00;;;;;;;15.37;100.00;100511.42;1924747;74;26182;-77
2021/05/17 09:14:23;;;;;;;10.97;9.50;;;;;;;15.38;100.00;100510.86;1921600;74;26654;-81
2021/05/17 09:16:59;;;;;;;10.20;9.17;;;;;;;15.60;100.00;100515.55;1865432;76;26262;-78
2021/05/17 09:19:32;;;;;;;10.47;9.40;;;;;;;15.52;100.00;100525.59;1881931;76;26200;-79
2021/05/17 09:22:12;;;;;;;11.40;9.93;;;;;;;15.58;100.00;100520.63;1881898;76;26225;-80
2021/05/17 09:24:47;;;;;;;10.23;9.23;;;;;;;15.40;100.00;100534.56;1868277;76;26300;-81
2021/05/17 09:27:21;;;;;;;11.40;9.17;;;;;;;15.31;100.00;100532.91;1864011;77;26721;-79
2021/05/17 09:29:52;;;;;;;9.23;8.33;;;;;;;15.38;100.00;100538.84;1863902;77;26190;-78
2021/05/17 09:32:25;;;;;;;8.73;7.83;;;;;;;15.40;100.00;100535.95;1872731;76;26311;-76
2021/05/17 09:35:05;;;;;;;8.93;8.13;;;;;;;15.63;100.00;100540.08;1881781;76;26285;-78
2021/05/17 09:37:47;;;;;;;8.60;7.50;;;;;;;16.01;100.00;100538.88;1881799;76;26183;-77
2021/05/17 09:40:22;;;;;;;7.73;6.97;;;;;;;16.00;100.00;100533.89;1881801;76;26260;-79
2021/05/17 09:43:02;;;;;;;7.53;6.73;;;;;;;16.01;100.00;100537.48;1881889;76;26508;-78
2021/05/17 09:45:34;;;;;;;13.57;7.60;;;;;;;15.75;100.00;100540.27;1881829;76;26273;-78
2021/05/17 09:48:09;;;;;;;7.03;6.30;;;;;;;15.60;100.00;100545.77;1881830;76;26263;-77
2021/05/17 09:51:04;;;;;;;6.73;6.03;;;;;;;15.49;100.00;100550.80;1881823;76;26272;-78
2021/05/17 09:53:36;;;;;;;9.33;6.53;;;;;;;15.62;100.00;100551.85;1881896;76;26283;-78
2021/05/17 09:56:12;;;;;;;9.30;6.17;;;;;;;15.71;100.00;100552.70;1881861;76;26186;-78
2021/05/17 09:58:44;;;;;;;7.57;5.90;;;;;;;15.91;100.00;100545.66;1881843;76;26241;-78
2021/05/17 10:01:20;;;;;;;9.60;5.63;;;;;;;16.04;100.00;100547.48;1881903;76;26201;-78
2021/05/17 10:03:52;;;;;;;6.77;6.07;;;;;;;16.28;100.00;100548.38;1850280;76;26249;-78
2021/05/17 10:06:24;;;;;;;7.53;6.83;;;;;;;16.03;100.00;100547.80;1882001;76;26275;-78
2021/05/17 10:08:55;;;;;;;8.30;7.43;;;;;;;15.66;100.00;100564.65;1881955;76;26194;-77
2021/05/17 10:11:28;;;;;;;9.90;6.43;;;;;;;15.12;100.00;100570.92;1881907;76;26201;-78
2021/05/17 10:13:58;;;;;;;9.67;7.10;;;;;;;14.92;100.00;100572.33;1881735;76;26307;-78
2021/05/17 10:16:28;;;;;;;9.10;7.80;;;;;;;14.82;100.00;100573.16;1881889;76;26186;-78
2021/05/17 10:18:58;;;;;;;8.70;6.87;;;;;;;14.70;100.00;100579.91;1882043;76;26357;-78
2021/05/17 10:21:27;;;;;;;8.97;7.03;;;;;;;14.57;100.00;100584.43;1882074;76;26226;-78
2021/05/17 10:23:59;;;;;;;12.20;9.17;;;;;;;14.36;100.00;100588.31;1881897;76;26260;-78
2021/05/17 10:26:33;;;;;;;8.30;7.50;;;;;;;14.55;100.00;100587.53;1882006;76;26653;-78
2021/05/17 10:29:06;;;;;;;8.17;6.80;;;;;;;14.81;100.00;100580.72;1881978;76;26665;-78
2021/05/17 10:31:36;;;;;;;11.77;7.90;;;;;;;14.78;100.00;100589.75;1881892;76;26597;-78
2021/05/17 10:34:07;;;;;;;9.97;7.60;;;;;;;15.03;100.00;100589.64;1881937;76;26653;-79
2021/05/17 10:36:53;;;;;;;7.97;6.90;;;;;;;15.42;100.00;100583.23;1881972;76;26276;-78
2021/05/17 10:39:29;;;;;;;7.13;6.20;;;;;;;15.89;100.00;100576.79;1863648;76;26786;-78
2021/05/17 10:42:11;;;;;;;8.10;6.83;;;;;;;15.84;100.00;100571.91;1881326;76;26198;-78
2021/05/17 10:47:51;;;;;;;9.37;7.07;;;;;;;15.34;100.00;100584.02;1881968;76;26230;-79
2021/05/17 10:50:22;;;;;;;10.90;8.03;;;;;;;15.34;100.00;100590.45;1882000;76;26784;-78
2021/05/17 10:52:52;;;;;;;11.03;6.70;;;;;;;15.44;100.00;100589.34;1881951;76;26201;-78
2021/05/17 10:55:21;;;;;;;7.70;6.23;;;;;;;15.31;100.00;100589.70;1881978;76;26275;-78
2021/05/17 10:58:06;;;;;;;9.47;6.53;;;;;;;15.27;100.00;100596.27;1882141;76;26218;-79
2021/05/17 11:00:32;;;;;;;9.33;6.73;;;;;;;15.16;100.00;100606.91;1849089;77;26222;-78
2021/05/17 11:03:13;;;;;;;10.20;7.27;;;;;;;14.98;100.00;100610.75;1882044;76;26700;-78
2021/05/17 11:05:44;;;;;;;8.97;7.57;;;;;;;14.82;100.00;100607.54;1882212;76;26355;-78
2021/05/17 11:08:16;;;;;;;11.70;8.47;;;;;;;14.77;100.00;100611.86;1882099;76;26264;-77
2021/05/17 11:10:51;;;;;;;13.17;9.13;;;;;;;14.80;100.00;100613.21;1882083;76;26640;-78
2021/05/17 11:13:23;;;;;;;14.27;9.53;;;;;;;15.01;100.00;100614.33;1881996;76;26279;-78
2021/05/17 11:16:02;;;;;;;10.40;9.23;;;;;;;15.19;100.00;100608.25;1881988;76;26281;-79
2021/05/17 11:18:40;;;;;;;11.07;8.53;;;;;;;15.11;100.00;100606.20;1881947;76;26625;-79
2021/05/17 11:21:22;;;;;;;9.43;7.20;;;;;;;15.21;100.00;100608.73;1882357;76;26654;-79
2021/05/17 11:23:58;;;;;;;8.37;7.40;;;;;;;15.42;100.00;100610.64;1881987;76;26695;-79
2021/05/17 11:26:30;;;;;;;9.57;7.93;;;;;;;15.37;100.00;100603.78;1881917;76;26300;-79
2021/05/17 11:29:09;;;;;;;8.77;7.20;;;;;;;15.99;100.00;100595.27;1881960;76;26318;-79
2021/05/17 11:31:45;;;;;;;7.27;6.30;;;;;;;16.05;100.00;100596.73;1881903;76;26230;-79
2021/05/17 11:34:25;;;;;;;7.50;6.37;;;;;;;15.54;100.00;100602.22;1881984;76;26189;-79
2021/05/17 11:37:14;;;;;;;6.13;5.40;;;;;;;16.03;100.00;100597.66;1882172;76;26215;-79
2021/05/17 11:39:44;;;;;;;8.63;5.97;;;;;;;16.11;100.00;100594.61;1882248;76;26347;-79
2021/05/17 11:42:14;;;;;;;7.17;5.97;;;;;;;15.96;100.00;100601.50;1881923;76;26239;-78
2021/05/17 11:44:53;;;;;;;5.40;4.90;;;;;;;15.87;100.00;100607.09;1882168;76;26272;-79
2021/05/17 11:47:23;;;;;;;6.10;5.50;;;;;;;15.54;100.00;100610.63;1849506;77;26224;-78